sensor_id;sensor_type;location;lat;lon;timestamp;P1;durP1;ratioP1;P2;durP2;ratioP2
40198;SDS011;25906;43.536;26.068;2022-11-18T00:02:30;11.55;;;5.63;;
40198;SDS011;25906;43.536;26.068;2022-11-18T00:05:16;10.05;;;6.13;;
40198;SDS011;25906;43.536;26.068;2022-11-18T00:08:02;9.98;;;6.15;;
40198;SDS011;25906;43.536;26.068;2022-11-18T00:10:47;9.63;;;5.90;;
40198;SDS011;25906;43.536;26.068;2022-11-18T00:13:33;9.38;;;5.85;;
40198;SDS011;25906;43.536;26.068;2022-11-18T00:16:38;11.38;;;5.97;;
40198;SDS011;25906;43.536;26.068;2022-11-18T00:19:24;8.65;;;5.68;;
40198;SDS011;25906;43.536;26.068;2022-11-18T00:22:15;8.60;;;5.50;;
40198;SDS011;25906;43.536;26.068;2022-11-18T00:25:01;9.25;;;5.85;;
40198;SDS011;25906;43.536;26.068;2022-11-18T00:27:46;8.05;;;5.28;;
40198;SDS011;25906;43.536;26.068;2022-11-18T00:30:32;8.98;;;6.38;;
40198;SDS011;25906;43.536;26.068;2022-11-18T00:33:17;8.68;;;5.47;;
40198;SDS011;25906;43.536;26.068;2022-11-18T00:36:03;11.63;;;6.07;;
40198;SDS011;25906;43.536;26.068;2022-11-18T00:38:50;10.35;;;6.15;;
40198;SDS011;25906;43.536;26.068;2022-11-18T00:41:36;9.00;;;5.53;;
40198;SDS011;25906;43.536;26.068;2022-11-18T00:44:40;8.38;;;4.68;;
40198;SDS011;25906;43.536;26.068;2022-11-18T00:47:26;8.32;;;5.28;;
40198;SDS011;25906;43.536;26.068;2022-11-18T00:52:57;9.00;;;5.60;;
40198;SDS011;25906;43.536;26.068;2022-11-18T00:55:42;10.77;;;6.25;;
40198;SDS011;25906;43.536;26.068;2022-11-18T01:01:14;6.82;;;5.22;;
40198;SDS011;25906;43.536;26.068;2022-11-18T01:03:59;12.25;;;6.45;;
40198;SDS011;25906;43.536;26.068;2022-11-18T01:06:45;10.00;;;6.10;;
40198;SDS011;25906;43.536;26.068;2022-11-18T01:09:30;8.68;;;5.18;;
40198;SDS011;25906;43.536;26.068;2022-11-18T01:12:16;9.65;;;5.70;;
40198;SDS011;25906;43.536;26.068;2022-11-18T01:15:20;8.90;;;5.32;;
40198;SDS011;25906;43.536;26.068;2022-11-18T01:18:06;9.55;;;5.57;;
40198;SDS011;25906;43.536;26.068;2022-11-18T01:23:37;8.57;;;5.28;;
40198;SDS011;25906;43.536;26.068;2022-11-18T01:26:23;7.95;;;5.40;;
40198;SDS011;25906;43.536;26.068;2022-11-18T01:29:08;9.48;;;5.03;;
40198;SDS011;25906;43.536;26.068;2022-11-18T01:34:39;7.95;;;4.93;;
40198;SDS011;25906;43.536;26.068;2022-11-18T01:37:25;7.82;;;4.88;;
40198;SDS011;25906;43.536;26.068;2022-11-18T01:40:10;8.10;;;4.97;;
40198;SDS011;25906;43.536;26.068;2022-11-18T01:45:43;6.63;;;4.07;;
40198;SDS011;25906;43.536;26.068;2022-11-18T01:48:30;6.72;;;4.38;;
40198;SDS011;25906;43.536;26.068;2022-11-18T01:51:20;9.98;;;4.65;;
40198;SDS011;25906;43.536;26.068;2022-11-18T01:54:12;9.70;;;5.35;;
40198;SDS011;25906;43.536;26.068;2022-11-18T01:57:01;7.38;;;4.93;;
40198;SDS011;25906;43.536;26.068;2022-11-18T01:59:49;7.65;;;4.75;;
40198;SDS011;25906;43.536;26.068;2022-11-18T02:02:38;7.18;;;4.70;;
40198;SDS011;25906;43.536;26.068;2022-11-18T02:05:24;9.63;;;4.60;;
40198;SDS011;25906;43.536;26.068;2022-11-18T02:08:10;7.28;;;4.28;;
40198;SDS011;25906;43.536;26.068;2022-11-18T02:13:42;8.15;;;4.50;;
40198;SDS011;25906;43.536;26.068;2022-11-18T02:16:53;7.38;;;4.90;;
40198;SDS011;25906;43.536;26.068;2022-11-18T02:31:40;6.32;;;4.43;;
40198;SDS011;25906;43.536;26.068;2022-11-18T02:34:50;7.63;;;4.70;;
40198;SDS011;25906;43.536;26.068;2022-11-18T02:37:39;6.93;;;4.60;;
40198;SDS011;25906;43.536;26.068;2022-11-18T02:40:29;8.27;;;4.05;;
40198;SDS011;25906;43.536;26.068;2022-11-18T02:43:23;5.32;;;3.70;;
40198;SDS011;25906;43.536;26.068;2022-11-18T02:46:13;6.93;;;4.18;;
40198;SDS011;25906;43.536;26.068;2022-11-18T02:49:04;5.82;;;3.67;;
40198;SDS011;25906;43.536;26.068;2022-11-18T02:51:52;7.15;;;3.70;;
40198;SDS011;25906;43.536;26.068;2022-11-18T02:54:39;5.28;;;3.80;;
40198;SDS011;25906;43.536;26.068;2022-11-18T02:57:27;6.75;;;3.60;;
40198;SDS011;25906;43.536;26.068;2022-11-18T03:00:14;6.28;;;3.45;;
40198;SDS011;25906;43.536;26.068;2022-11-18T03:03:00;5.78;;;3.05;;
40198;SDS011;25906;43.536;26.068;2022-11-18T03:09:20;7.10;;;3.80;;
40198;SDS011;25906;43.536;26.068;2022-11-18T03:21:36;7.53;;;3.70;;
40198;SDS011;25906;43.536;26.068;2022-11-18T03:24:30;8.10;;;4.43;;
40198;SDS011;25906;43.536;26.068;2022-11-18T03:27:20;7.05;;;3.75;;
40198;SDS011;25906;43.536;26.068;2022-11-18T03:30:12;6.50;;;3.88;;
40198;SDS011;25906;43.536;26.068;2022-11-18T03:33:04;6.45;;;4.03;;
40198;SDS011;25906;43.536;26.068;2022-11-18T03:35:56;5.47;;;3.65;;
40198;SDS011;25906;43.536;26.068;2022-11-18T03:38:46;4.70;;;3.35;;
40198;SDS011;25906;43.536;26.068;2022-11-18T03:41:37;4.75;;;3.55;;
40198;SDS011;25906;43.536;26.068;2022-11-18T03:44:31;5.95;;;3.55;;
40198;SDS011;25906;43.536;26.068;2022-11-18T03:47:25;6.30;;;3.35;;
40198;SDS011;25906;43.536;26.068;2022-11-18T03:50:16;6.57;;;3.13;;
40198;SDS011;25906;43.536;26.068;2022-11-18T03:53:06;8.02;;;3.45;;
40198;SDS011;25906;43.536;26.068;2022-11-18T03:55:53;4.47;;;2.80;;
40198;SDS011;25906;43.536;26.068;2022-11-18T03:58:56;3.85;;;2.83;;
40198;SDS011;25906;43.536;26.068;2022-11-18T04:01:52;3.75;;;2.72;;
40198;SDS011;25906;43.536;26.068;2022-11-18T04:04:46;4.40;;;3.25;;
40198;SDS011;25906;43.536;26.068;2022-11-18T04:10:29;6.93;;;3.20;;
40198;SDS011;25906;43.536;26.068;2022-11-18T04:13:19;10.43;;;3.27;;
40198;SDS011;25906;43.536;26.068;2022-11-18T04:16:08;7.07;;;3.15;;
40198;SDS011;25906;43.536;26.068;2022-11-18T04:18:55;4.63;;;3.03;;
40198;SDS011;25906;43.536;26.068;2022-11-18T04:21:41;4.47;;;2.85;;
40198;SDS011;25906;43.536;26.068;2022-11-18T04:24:26;4.53;;;2.80;;
40198;SDS011;25906;43.536;26.068;2022-11-18T04:27:12;4.88;;;3.28;;
40198;SDS011;25906;43.536;26.068;2022-11-18T04:32:43;6.63;;;2.90;;
40198;SDS011;25906;43.536;26.068;2022-11-18T04:35:28;5.70;;;3.28;;
40198;SDS011;25906;43.536;26.068;2022-11-18T04:38:14;6.80;;;3.20;;
40198;SDS011;25906;43.536;26.068;2022-11-18T04:41:00;3.88;;;2.67;;
40198;SDS011;25906;43.536;26.068;2022-11-18T04:43:45;8.00;;;2.70;;
40198;SDS011;25906;43.536;26.068;2022-11-18T04:46:31;4.05;;;3.03;;
40198;SDS011;25906;43.536;26.068;2022-11-18T04:49:16;3.78;;;2.67;;
40198;SDS011;25906;43.536;26.068;2022-11-18T04:52:03;4.30;;;2.80;;
40198;SDS011;25906;43.536;26.068;2022-11-18T04:57:34;4.05;;;2.38;;
40198;SDS011;25906;43.536;26.068;2022-11-18T05:00:19;4.32;;;2.63;;
40198;SDS011;25906;43.536;26.068;2022-11-18T05:03:06;3.88;;;2.63;;
40198;SDS011;25906;43.536;26.068;2022-11-18T05:05:51;6.45;;;2.85;;
40198;SDS011;25906;43.536;26.068;2022-11-18T05:08:38;4.20;;;2.88;;
40198;SDS011;25906;43.536;26.068;2022-11-18T05:11:23;5.85;;;2.85;;
40198;SDS011;25906;43.536;26.068;2022-11-18T05:14:28;6.63;;;5.00;;
40198;SDS011;25906;43.536;26.068;2022-11-18T05:17:14;9.98;;;4.53;;
40198;SDS011;25906;43.536;26.068;2022-11-18T05:20:00;6.53;;;3.97;;
40198;SDS011;25906;43.536;26.068;2022-11-18T05:22:45;3.33;;;2.55;;
40198;SDS011;25906;43.536;26.068;2022-11-18T05:25:31;4.78;;;3.22;;
40198;SDS011;25906;43.536;26.068;2022-11-18T05:28:16;4.95;;;3.63;;
40198;SDS011;25906;43.536;26.068;2022-11-18T05:31:06;4.10;;;3.17;;
40198;SDS011;25906;43.536;26.068;2022-11-18T05:33:55;5.75;;;3.40;;
40198;SDS011;25906;43.536;26.068;2022-11-18T05:36:41;4.57;;;3.30;;
40198;SDS011;25906;43.536;26.068;2022-11-18T05:42:12;4.68;;;3.25;;
40198;SDS011;25906;43.536;26.068;2022-11-18T05:45:17;6.72;;;3.80;;
40198;SDS011;25906;43.536;26.068;2022-11-18T05:48:03;5.40;;;3.78;;
40198;SDS011;25906;43.536;26.068;2022-11-18T05:50:51;5.00;;;3.60;;
40198;SDS011;25906;43.536;26.068;2022-11-18T05:53:37;5.53;;;3.33;;
40198;SDS011;25906;43.536;26.068;2022-11-18T05:59:08;6.05;;;3.67;;
40198;SDS011;25906;43.536;26.068;2022-11-18T06:02:04;5.80;;;3.70;;
40198;SDS011;25906;43.536;26.068;2022-11-18T06:04:56;9.73;;;4.70;;
40198;SDS011;25906;43.536;26.068;2022-11-18T06:07:45;12.13;;;5.03;;
40198;SDS011;25906;43.536;26.068;2022-11-18T06:10:32;6.45;;;4.00;;
40198;SDS011;25906;43.536;26.068;2022-11-18T06:13:24;8.68;;;3.65;;
40198;SDS011;25906;43.536;26.068;2022-11-18T06:16:16;4.80;;;3.40;;
40198;SDS011;25906;43.536;26.068;2022-11-18T06:19:05;4.50;;;3.50;;
40198;SDS011;25906;43.536;26.068;2022-11-18T06:24:36;5.50;;;3.47;;
40198;SDS011;25906;43.536;26.068;2022-11-18T06:27:22;5.25;;;3.40;;
40198;SDS011;25906;43.536;26.068;2022-11-18T06:30:08;4.68;;;3.20;;
40198;SDS011;25906;43.536;26.068;2022-11-18T06:32:54;4.82;;;3.70;;
40198;SDS011;25906;43.536;26.068;2022-11-18T06:35:41;5.00;;;3.65;;
40198;SDS011;25906;43.536;26.068;2022-11-18T06:38:27;6.00;;;3.75;;
40198;SDS011;25906;43.536;26.068;2022-11-18T06:43:58;5.72;;;3.90;;
40198;SDS011;25906;43.536;26.068;2022-11-18T06:49:41;5.88;;;3.78;;
40198;SDS011;25906;43.536;26.068;2022-11-18T06:52:27;6.95;;;4.13;;
40198;SDS011;25906;43.536;26.068;2022-11-18T06:55:12;8.10;;;4.25;;
40198;SDS011;25906;43.536;26.068;2022-11-18T06:57:58;7.55;;;5.22;;
40198;SDS011;25906;43.536;26.068;2022-11-18T07:00:43;6.72;;;4.35;;
40198;SDS011;25906;43.536;26.068;2022-11-18T07:03:29;7.47;;;4.53;;
40198;SDS011;25906;43.536;26.068;2022-11-18T07:06:15;6.88;;;4.85;;
40198;SDS011;25906;43.536;26.068;2022-11-18T07:09:04;10.20;;;5.03;;
40198;SDS011;25906;43.536;26.068;2022-11-18T07:11:51;12.45;;;6.55;;
40198;SDS011;25906;43.536;26.068;2022-11-18T07:14:36;9.82;;;5.63;;
40198;SDS011;25906;43.536;26.068;2022-11-18T07:17:22;7.82;;;5.32;;
40198;SDS011;25906;43.536;26.068;2022-11-18T07:20:07;5.47;;;3.63;;
40198;SDS011;25906;43.536;26.068;2022-11-18T07:22:53;6.75;;;4.22;;
40198;SDS011;25906;43.536;26.068;2022-11-18T07:25:39;6.75;;;3.83;;
40198;SDS011;25906;43.536;26.068;2022-11-18T07:28:24;4.65;;;3.28;;
40198;SDS011;25906;43.536;26.068;2022-11-18T07:31:11;4.50;;;3.00;;
40198;SDS011;25906;43.536;26.068;2022-11-18T07:34:04;7.75;;;4.25;;
40198;SDS011;25906;43.536;26.068;2022-11-18T07:36:51;5.93;;;3.80;;
40198;SDS011;25906;43.536;26.068;2022-11-18T07:39:36;4.88;;;2.92;;
40198;SDS011;25906;43.536;26.068;2022-11-18T07:42:21;4.50;;;2.78;;
40198;SDS011;25906;43.536;26.068;2022-11-18T07:45:08;3.22;;;2.65;;
40198;SDS011;25906;43.536;26.068;2022-11-18T07:47:57;3.72;;;2.85;;
40198;SDS011;25906;43.536;26.068;2022-11-18T07:50:42;3.63;;;3.03;;
40198;SDS011;25906;43.536;26.068;2022-11-18T07:53:31;3.85;;;2.83;;
40198;SDS011;25906;43.536;26.068;2022-11-18T07:56:18;3.85;;;2.63;;
40198;SDS011;25906;43.536;26.068;2022-11-18T07:59:04;4.18;;;2.85;;
40198;SDS011;25906;43.536;26.068;2022-11-18T08:01:50;7.32;;;2.75;;
40198;SDS011;25906;43.536;26.068;2022-11-18T08:04:36;2.95;;;2.35;;
40198;SDS011;25906;43.536;26.068;2022-11-18T08:07:21;3.92;;;2.65;;
40198;SDS011;25906;43.536;26.068;2022-11-18T08:10:07;3.70;;;2.58;;
40198;SDS011;25906;43.536;26.068;2022-11-18T08:12:53;6.15;;;2.40;;
40198;SDS011;25906;43.536;26.068;2022-11-18T08:15:40;3.50;;;2.58;;
40198;SDS011;25906;43.536;26.068;2022-11-18T08:18:27;7.30;;;2.88;;
40198;SDS011;25906;43.536;26.068;2022-11-18T08:21:15;3.42;;;2.75;;
40198;SDS011;25906;43.536;26.068;2022-11-18T08:24:02;5.25;;;3.15;;
40198;SDS011;25906;43.536;26.068;2022-11-18T08:26:48;6.13;;;3.10;;
40198;SDS011;25906;43.536;26.068;2022-11-18T08:29:34;5.50;;;2.92;;
40198;SDS011;25906;43.536;26.068;2022-11-18T08:32:19;4.15;;;2.97;;
40198;SDS011;25906;43.536;26.068;2022-11-18T08:35:05;5.72;;;2.95;;
40198;SDS011;25906;43.536;26.068;2022-11-18T08:40:36;3.67;;;2.80;;
40198;SDS011;25906;43.536;26.068;2022-11-18T08:43:21;3.22;;;2.70;;
40198;SDS011;25906;43.536;26.068;2022-11-18T08:46:07;4.22;;;2.78;;
40198;SDS011;25906;43.536;26.068;2022-11-18T08:48:52;3.97;;;3.13;;
40198;SDS011;25906;43.536;26.068;2022-11-18T08:51:38;3.33;;;2.70;;
40198;SDS011;25906;43.536;26.068;2022-11-18T08:54:23;2.63;;;2.20;;
40198;SDS011;25906;43.536;26.068;2022-11-18T08:57:09;2.70;;;2.17;;
40198;SDS011;25906;43.536;26.068;2022-11-18T08:59:54;2.92;;;2.30;;
40198;SDS011;25906;43.536;26.068;2022-11-18T09:02:40;7.13;;;2.28;;
40198;SDS011;25906;43.536;26.068;2022-11-18T09:05:26;2.92;;;2.33;;
40198;SDS011;25906;43.536;26.068;2022-11-18T09:08:11;4.13;;;2.10;;
40198;SDS011;25906;43.536;26.068;2022-11-18T09:10:56;3.00;;;2.25;;
40198;SDS011;25906;43.536;26.068;2022-11-18T09:13:42;5.43;;;2.45;;
40198;SDS011;25906;43.536;26.068;2022-11-18T09:16:28;2.78;;;2.45;;
40198;SDS011;25906;43.536;26.068;2022-11-18T09:19:16;3.05;;;2.15;;
40198;SDS011;25906;43.536;26.068;2022-11-18T09:22:03;2.47;;;1.95;;
40198;SDS011;25906;43.536;26.068;2022-11-18T09:24:49;4.65;;;2.03;;
40198;SDS011;25906;43.536;26.068;2022-11-18T09:27:34;4.88;;;2.20;;
40198;SDS011;25906;43.536;26.068;2022-11-18T09:30:20;5.10;;;2.17;;
40198;SDS011;25906;43.536;26.068;2022-11-18T09:33:05;3.17;;;2.42;;
40198;SDS011;25906;43.536;26.068;2022-11-18T09:38:37;4.22;;;2.60;;
40198;SDS011;25906;43.536;26.068;2022-11-18T09:44:36;5.03;;;2.00;;
40198;SDS011;25906;43.536;26.068;2022-11-18T09:47:33;3.45;;;1.70;;
40198;SDS011;25906;43.536;26.068;2022-11-18T09:50:19;3.72;;;2.22;;
40198;SDS011;25906;43.536;26.068;2022-11-18T09:56:09;10.57;;;5.65;;
40198;SDS011;25906;43.536;26.068;2022-11-18T09:59:01;4.13;;;2.85;;
40198;SDS011;25906;43.536;26.068;2022-11-18T10:01:47;4.90;;;2.38;;
40198;SDS011;25906;43.536;26.068;2022-11-18T10:04:34;6.13;;;2.25;;
40198;SDS011;25906;43.536;26.068;2022-11-18T10:07:21;7.18;;;2.00;;
40198;SDS011;25906;43.536;26.068;2022-11-18T10:16:25;2.33;;;1.35;;
40198;SDS011;25906;43.536;26.068;2022-11-18T10:25:34;8.15;;;3.50;;
40198;SDS011;25906;43.536;26.068;2022-11-18T10:28:27;2.38;;;2.00;;
40198;SDS011;25906;43.536;26.068;2022-11-18T10:31:14;3.78;;;2.08;;
40198;SDS011;25906;43.536;26.068;2022-11-18T10:34:00;4.53;;;2.88;;
40198;SDS011;25906;43.536;26.068;2022-11-18T10:39:48;3.53;;;1.60;;
40198;SDS011;25906;43.536;26.068;2022-11-18T10:42:41;1.52;;;1.42;;
40198;SDS011;25906;43.536;26.068;2022-11-18T10:45:30;2.10;;;1.30;;
40198;SDS011;25906;43.536;26.068;2022-11-18T10:48:17;1.33;;;1.20;;
40198;SDS011;25906;43.536;26.068;2022-11-18T10:51:06;1.95;;;1.33;;
40198;SDS011;25906;43.536;26.068;2022-11-18T10:54:06;2.75;;;1.33;;
40198;SDS011;25906;43.536;26.068;2022-11-18T10:56:53;4.85;;;1.73;;
40198;SDS011;25906;43.536;26.068;2022-11-18T11:02:44;2.33;;;1.70;;
40198;SDS011;25906;43.536;26.068;2022-11-18T11:05:30;3.78;;;1.77;;
40198;SDS011;25906;43.536;26.068;2022-11-18T11:08:20;4.50;;;1.50;;
40198;SDS011;25906;43.536;26.068;2022-11-18T11:11:15;2.38;;;1.52;;
40198;SDS011;25906;43.536;26.068;2022-11-18T11:17:30;3.90;;;1.33;;
40198;SDS011;25906;43.536;26.068;2022-11-18T11:20:24;4.30;;;1.98;;
40198;SDS011;25906;43.536;26.068;2022-11-18T11:23:11;2.63;;;1.67;;
40198;SDS011;25906;43.536;26.068;2022-11-18T11:26:09;5.70;;;2.03;;
40198;SDS011;25906;43.536;26.068;2022-11-18T11:29:05;1.80;;;1.50;;
40198;SDS011;25906;43.536;26.068;2022-11-18T11:35:25;2.78;;;1.42;;
40198;SDS011;25906;43.536;26.068;2022-11-18T11:41:22;1.83;;;1.17;;
40198;SDS011;25906;43.536;26.068;2022-11-18T11:50:54;1.88;;;1.25;;
40198;SDS011;25906;43.536;26.068;2022-11-18T11:57:01;1.83;;;1.13;;
40198;SDS011;25906;43.536;26.068;2022-11-18T12:05:39;1.48;;;1.30;;
40198;SDS011;25906;43.536;26.068;2022-11-18T12:08:30;4.45;;;1.50;;
40198;SDS011;25906;43.536;26.068;2022-11-18T12:11:25;8.88;;;1.65;;
40198;SDS011;25906;43.536;26.068;2022-11-18T12:14:26;2.05;;;1.40;;
40198;SDS011;25906;43.536;26.068;2022-11-18T12:23:39;1.95;;;1.38;;
40198;SDS011;25906;43.536;26.068;2022-11-18T12:26:43;1.10;;;1.10;;
40198;SDS011;25906;43.536;26.068;2022-11-18T12:29:51;6.72;;;1.38;;
40198;SDS011;25906;43.536;26.068;2022-11-18T12:32:40;4.57;;;1.23;;
40198;SDS011;25906;43.536;26.068;2022-11-18T12:35:33;4.13;;;1.17;;
40198;SDS011;25906;43.536;26.068;2022-11-18T12:38:27;2.95;;;1.20;;
40198;SDS011;25906;43.536;26.068;2022-11-18T12:44:43;1.67;;;1.50;;
40198;SDS011;25906;43.536;26.068;2022-11-18T12:48:25;2.08;;;1.45;;
40198;SDS011;25906;43.536;26.068;2022-11-18T12:50:45;4.75;;;1.60;;
40198;SDS011;25906;43.536;26.068;2022-11-18T12:59:11;2.72;;;1.40;;
40198;SDS011;25906;43.536;26.068;2022-11-18T13:05:11;12.00;;;4.88;;
40198;SDS011;25906;43.536;26.068;2022-11-18T13:08:08;23.00;;;10.73;;
40198;SDS011;25906;43.536;26.068;2022-11-18T13:11:08;28.23;;;14.13;;
40198;SDS011;25906;43.536;26.068;2022-11-18T13:14:26;25.30;;;11.90;;
40198;SDS011;25906;43.536;26.068;2022-11-18T13:17:38;19.42;;;9.63;;
40198;SDS011;25906;43.536;26.068;2022-11-18T13:20:36;15.52;;;7.00;;
40198;SDS011;25906;43.536;26.068;2022-11-18T13:23:30;10.35;;;4.80;;
40198;SDS011;25906;43.536;26.068;2022-11-18T13:26:34;4.95;;;2.78;;
40198;SDS011;25906;43.536;26.068;2022-11-18T13:32:23;2.35;;;1.80;;
40198;SDS011;25906;43.536;26.068;2022-11-18T13:38:00;2.63;;;1.50;;
40198;SDS011;25906;43.536;26.068;2022-11-18T13:40:46;2.35;;;1.90;;
40198;SDS011;25906;43.536;26.068;2022-11-18T13:56:26;3.72;;;2.17;;
40198;SDS011;25906;43.536;26.068;2022-11-18T13:59:18;4.70;;;2.80;;
40198;SDS011;25906;43.536;26.068;2022-11-18T14:02:07;10.10;;;4.15;;
40198;SDS011;25906;43.536;26.068;2022-11-18T14:04:57;4.75;;;2.72;;
40198;SDS011;25906;43.536;26.068;2022-11-18T14:07:52;3.42;;;2.55;;
40198;SDS011;25906;43.536;26.068;2022-11-18T14:10:45;6.82;;;2.40;;
40198;SDS011;25906;43.536;26.068;2022-11-18T14:13:35;3.00;;;2.28;;
40198;SDS011;25906;43.536;26.068;2022-11-18T14:16:33;5.10;;;2.70;;
40198;SDS011;25906;43.536;26.068;2022-11-18T14:19:27;5.15;;;3.35;;
40198;SDS011;25906;43.536;26.068;2022-11-18T14:22:16;3.00;;;2.70;;
40198;SDS011;25906;43.536;26.068;2022-11-18T14:31:18;5.47;;;3.40;;
40198;SDS011;25906;43.536;26.068;2022-11-18T14:34:25;7.75;;;3.38;;
40198;SDS011;25906;43.536;26.068;2022-11-18T14:37:12;3.65;;;3.03;;
40198;SDS011;25906;43.536;26.068;2022-11-18T14:39:59;5.85;;;3.47;;
40198;SDS011;25906;43.536;26.068;2022-11-18T14:42:45;5.30;;;3.20;;
40198;SDS011;25906;43.536;26.068;2022-11-18T14:45:30;8.95;;;3.33;;
40198;SDS011;25906;43.536;26.068;2022-11-18T14:48:16;7.95;;;3.92;;
40198;SDS011;25906;43.536;26.068;2022-11-18T14:51:04;6.45;;;3.50;;
40198;SDS011;25906;43.536;26.068;2022-11-18T14:53:50;29.77;;;17.58;;
40198;SDS011;25906;43.536;26.068;2022-11-18T14:56:35;26.70;;;15.20;;
40198;SDS011;25906;43.536;26.068;2022-11-18T14:59:20;26.58;;;15.30;;
40198;SDS011;25906;43.536;26.068;2022-11-18T15:02:13;20.48;;;12.57;;
40198;SDS011;25906;43.536;26.068;2022-11-18T15:05:00;10.15;;;5.88;;
40198;SDS011;25906;43.536;26.068;2022-11-18T15:07:45;18.42;;;9.07;;
40198;SDS011;25906;43.536;26.068;2022-11-18T15:10:31;11.18;;;6.35;;
40198;SDS011;25906;43.536;26.068;2022-11-18T15:13:16;5.10;;;3.88;;
40198;SDS011;25906;43.536;26.068;2022-11-18T15:16:12;6.28;;;3.30;;
40198;SDS011;25906;43.536;26.068;2022-11-18T15:19:00;7.13;;;3.90;;
40198;SDS011;25906;43.536;26.068;2022-11-18T15:21:48;8.95;;;4.50;;
40198;SDS011;25906;43.536;26.068;2022-11-18T15:24:34;8.02;;;4.40;;
40198;SDS011;25906;43.536;26.068;2022-11-18T15:27:20;9.73;;;5.03;;
40198;SDS011;25906;43.536;26.068;2022-11-18T15:30:07;9.52;;;4.68;;
40198;SDS011;25906;43.536;26.068;2022-11-18T15:32:55;8.38;;;4.68;;
40198;SDS011;25906;43.536;26.068;2022-11-18T15:35:40;5.43;;;4.00;;
40198;SDS011;25906;43.536;26.068;2022-11-18T15:38:26;7.75;;;4.55;;
40198;SDS011;25906;43.536;26.068;2022-11-18T15:41:15;9.82;;;3.88;;
40198;SDS011;25906;43.536;26.068;2022-11-18T15:44:01;5.57;;;3.33;;
40198;SDS011;25906;43.536;26.068;2022-11-18T15:46:47;5.75;;;3.80;;
40198;SDS011;25906;43.536;26.068;2022-11-18T15:49:33;5.72;;;3.75;;
40198;SDS011;25906;43.536;26.068;2022-11-18T15:52:18;5.10;;;3.45;;
40198;SDS011;25906;43.536;26.068;2022-11-18T15:55:04;4.07;;;2.67;;
40198;SDS011;25906;43.536;26.068;2022-11-18T16:00:36;6.85;;;3.60;;
40198;SDS011;25906;43.536;26.068;2022-11-18T16:03:21;6.40;;;3.90;;
40198;SDS011;25906;43.536;26.068;2022-11-18T16:06:07;6.53;;;4.18;;
40198;SDS011;25906;43.536;26.068;2022-11-18T16:08:53;8.73;;;3.80;;
40198;SDS011;25906;43.536;26.068;2022-11-18T16:11:39;7.07;;;3.97;;
40198;SDS011;25906;43.536;26.068;2022-11-18T16:14:43;6.30;;;3.60;;
40198;SDS011;25906;43.536;26.068;2022-11-18T16:17:49;7.95;;;3.70;;
40198;SDS011;25906;43.536;26.068;2022-11-18T16:20:34;6.13;;;3.15;;
40198;SDS011;25906;43.536;26.068;2022-11-18T16:26:05;4.95;;;3.10;;
40198;SDS011;25906;43.536;26.068;2022-11-18T16:28:51;4.50;;;2.78;;
40198;SDS011;25906;43.536;26.068;2022-11-18T16:31:38;4.10;;;2.90;;
40198;SDS011;25906;43.536;26.068;2022-11-18T16:34:27;3.75;;;3.03;;
40198;SDS011;25906;43.536;26.068;2022-11-18T16:37:13;5.22;;;2.90;;
40198;SDS011;25906;43.536;26.068;2022-11-18T16:39:58;5.60;;;3.65;;
40198;SDS011;25906;43.536;26.068;2022-11-18T16:42:46;5.63;;;3.22;;
40198;SDS011;25906;43.536;26.068;2022-11-18T16:45:33;7.15;;;3.33;;
40198;SDS011;25906;43.536;26.068;2022-11-18T16:48:19;5.50;;;3.92;;
40198;SDS011;25906;43.536;26.068;2022-11-18T16:54:02;8.40;;;3.95;;
40198;SDS011;25906;43.536;26.068;2022-11-18T16:56:50;6.90;;;3.85;;
40198;SDS011;25906;43.536;26.068;2022-11-18T16:59:36;5.95;;;3.80;;
40198;SDS011;25906;43.536;26.068;2022-11-18T17:02:22;5.55;;;3.33;;
40198;SDS011;25906;43.536;26.068;2022-11-18T17:05:08;4.95;;;3.40;;
40198;SDS011;25906;43.536;26.068;2022-11-18T17:07:53;5.70;;;3.63;;
40198;SDS011;25906;43.536;26.068;2022-11-18T17:10:39;5.70;;;3.60;;
40198;SDS011;25906;43.536;26.068;2022-11-18T17:13:26;8.85;;;3.63;;
40198;SDS011;25906;43.536;26.068;2022-11-18T17:16:16;7.40;;;3.45;;
40198;SDS011;25906;43.536;26.068;2022-11-18T17:19:03;9.05;;;3.50;;
40198;SDS011;25906;43.536;26.068;2022-11-18T17:24:35;5.28;;;3.00;;
40198;SDS011;25906;43.536;26.068;2022-11-18T17:27:20;6.13;;;3.85;;
40198;SDS011;25906;43.536;26.068;2022-11-18T17:30:06;5.32;;;3.55;;
40198;SDS011;25906;43.536;26.068;2022-11-18T17:35:38;9.50;;;4.03;;
40198;SDS011;25906;43.536;26.068;2022-11-18T17:38:24;6.93;;;3.42;;
40198;SDS011;25906;43.536;26.068;2022-11-18T17:41:10;5.88;;;3.40;;
40198;SDS011;25906;43.536;26.068;2022-11-18T17:44:16;10.50;;;3.30;;
40198;SDS011;25906;43.536;26.068;2022-11-18T17:47:02;4.18;;;3.25;;
40198;SDS011;25906;43.536;26.068;2022-11-18T17:49:47;6.35;;;3.63;;
40198;SDS011;25906;43.536;26.068;2022-11-18T17:52:33;8.82;;;3.60;;
40198;SDS011;25906;43.536;26.068;2022-11-18T17:55:18;7.57;;;3.40;;
40198;SDS011;25906;43.536;26.068;2022-11-18T17:58:04;7.75;;;3.90;;
40198;SDS011;25906;43.536;26.068;2022-11-18T18:03:35;10.27;;;3.65;;
40198;SDS011;25906;43.536;26.068;2022-11-18T18:06:21;4.72;;;3.53;;
40198;SDS011;25906;43.536;26.068;2022-11-18T18:09:07;8.63;;;3.70;;
40198;SDS011;25906;43.536;26.068;2022-11-18T18:11:52;7.43;;;3.95;;
40198;SDS011;25906;43.536;26.068;2022-11-18T18:14:38;6.20;;;4.00;;
40198;SDS011;25906;43.536;26.068;2022-11-18T18:17:23;6.05;;;4.45;;
40198;SDS011;25906;43.536;26.068;2022-11-18T18:20:09;5.68;;;4.43;;
40198;SDS011;25906;43.536;26.068;2022-11-18T18:22:55;10.18;;;4.40;;
40198;SDS011;25906;43.536;26.068;2022-11-18T18:25:41;7.88;;;4.63;;
40198;SDS011;25906;43.536;26.068;2022-11-18T18:28:26;9.60;;;4.85;;
40198;SDS011;25906;43.536;26.068;2022-11-18T18:31:13;8.02;;;5.10;;
40198;SDS011;25906;43.536;26.068;2022-11-18T18:33:59;8.10;;;5.43;;
40198;SDS011;25906;43.536;26.068;2022-11-18T18:36:45;6.60;;;4.82;;
40198;SDS011;25906;43.536;26.068;2022-11-18T18:39:30;8.50;;;5.57;;
40198;SDS011;25906;43.536;26.068;2022-11-18T18:42:16;7.13;;;4.88;;
40198;SDS011;25906;43.536;26.068;2022-11-18T18:45:01;8.93;;;5.40;;
40198;SDS011;25906;43.536;26.068;2022-11-18T18:48:05;6.72;;;5.15;;
40198;SDS011;25906;43.536;26.068;2022-11-18T18:50:51;6.90;;;5.35;;
40198;SDS011;25906;43.536;26.068;2022-11-18T18:53:36;8.95;;;5.38;;
40198;SDS011;25906;43.536;26.068;2022-11-18T18:56:22;10.95;;;6.18;;
40198;SDS011;25906;43.536;26.068;2022-11-18T18:59:08;7.78;;;5.93;;
40198;SDS011;25906;43.536;26.068;2022-11-18T19:01:54;11.27;;;6.45;;
40198;SDS011;25906;43.536;26.068;2022-11-18T19:04:39;11.15;;;6.32;;
40198;SDS011;25906;43.536;26.068;2022-11-18T19:07:25;11.60;;;6.85;;
40198;SDS011;25906;43.536;26.068;2022-11-18T19:10:12;13.15;;;7.70;;
40198;SDS011;25906;43.536;26.068;2022-11-18T19:12:58;11.05;;;5.88;;
40198;SDS011;25906;43.536;26.068;2022-11-18T19:15:43;7.70;;;5.35;;
40198;SDS011;25906;43.536;26.068;2022-11-18T19:18:32;6.57;;;5.35;;
40198;SDS011;25906;43.536;26.068;2022-11-18T19:21:18;6.82;;;5.20;;
40198;SDS011;25906;43.536;26.068;2022-11-18T19:24:04;9.82;;;5.03;;
40198;SDS011;25906;43.536;26.068;2022-11-18T19:26:50;10.32;;;5.45;;
40198;SDS011;25906;43.536;26.068;2022-11-18T19:29:35;6.65;;;5.28;;
40198;SDS011;25906;43.536;26.068;2022-11-18T19:32:21;7.35;;;5.60;;
40198;SDS011;25906;43.536;26.068;2022-11-18T19:35:07;8.63;;;5.50;;
40198;SDS011;25906;43.536;26.068;2022-11-18T19:37:53;12.00;;;5.95;;
40198;SDS011;25906;43.536;26.068;2022-11-18T19:40:39;12.00;;;6.60;;